createdAt,value
2023-01-02T00:03:49.366Z,91.96
2023-01-02T00:08:57.749Z,91.73
2023-01-02T00:14:08.708Z,92.05
2023-01-02T00:19:16.528Z,92.58
2023-01-02T00:24:26.193Z,92.42
2023-01-02T00:29:33.729Z,92.62
2023-01-02T00:34:41.725Z,93.01
2023-01-02T00:39:49.293Z,93.92
2023-01-02T00:44:57.433Z,94.04
2023-01-02T00:50:06.620Z,93.94
2023-01-02T00:55:17.362Z,94.16
2023-01-02T01:00:29.424Z,94.00
2023-01-02T01:05:40.061Z,94.09
2023-01-02T01:10:47.592Z,95.02
2023-01-02T01:15:56.290Z,95.07
2023-01-02T01:21:12.902Z,94.96
2023-01-02T01:26:21.641Z,95.14
2023-01-02T01:31:30.002Z,95.66
2023-01-02T01:36:41.620Z,95.57
2023-01-02T01:41:49.516Z,96.47
2023-01-02T01:46:57.730Z,97.52
2023-01-02T01:52:10.247Z,96.50
2023-01-02T01:57:21.593Z,96.50
2023-01-02T02:02:31.532Z,96.22
2023-01-02T02:10:25.157Z,95.03
2023-01-02T02:15:42.249Z,95.07
2023-01-02T02:20:59.412Z,94.74
2023-01-02T02:26:26.666Z,94.11
2023-01-02T02:31:42.241Z,93.30
2023-01-02T02:37:13.943Z,93.05
2023-01-02T02:42:33.150Z,93.86
2023-01-02T02:47:53.994Z,94.11
2023-01-02T02:53:09.475Z,94.80
2023-01-02T02:58:20.444Z,94.16
2023-01-02T03:03:29.483Z,94.33
2023-01-02T03:08:43.642Z,94.10
2023-01-02T03:14:03.722Z,93.93
2023-01-02T03:19:16.568Z,94.48
2023-01-02T03:24:28.225Z,94.54
2023-01-02T03:29:40.021Z,94.37
2023-01-02T03:34:50.349Z,94.38
2023-01-02T03:40:04.456Z,94.04
2023-01-02T03:45:20.661Z,93.51
2023-01-02T03:50:33.242Z,94.46
2023-01-02T03:55:43.469Z,94.48
2023-01-02T04:00:57.945Z,93.66
2023-01-02T04:17:14.271Z,94.51
2023-01-02T04:22:26.980Z,94.85
2023-01-02T04:27:39.401Z,93.78
2023-01-02T04:32:50.185Z,93.62
2023-01-02T04:37:59.157Z,94.27
2023-01-02T04:43:08.929Z,94.94
2023-01-02T04:48:16.715Z,94.41
2023-01-02T04:53:25.454Z,95.37
2023-01-02T04:58:33.579Z,96.29
2023-01-02T05:03:44.154Z,96.83
2023-01-02T05:08:52.266Z,97.18
2023-01-02T05:14:06.937Z,97.80
2023-01-02T05:19:17.579Z,97.40
2023-01-02T05:24:26.169Z,96.54
2023-01-02T05:29:34.193Z,95.79
2023-01-02T05:34:41.966Z,95.87
2023-01-02T05:39:49.699Z,95.92
2023-01-02T05:44:57.950Z,95.86
2023-01-02T05:50:06.035Z,95.72
2023-01-02T05:55:14.099Z,96.78
2023-01-02T06:00:22.561Z,96.99
2023-01-02T06:05:31.721Z,96.88
2023-01-02T06:10:39.462Z,96.63
2023-01-02T06:15:47.538Z,96.56
2023-01-02T06:21:00.413Z,97.60
2023-01-02T06:26:11.820Z,98.63
2023-01-02T06:31:22.696Z,98.34
2023-01-02T06:36:33.489Z,97.65
2023-01-02T06:41:41.599Z,97.40
2023-01-02T06:46:49.699Z,97.97
2023-01-02T06:51:58.060Z,98.08
2023-01-02T06:57:06.468Z,97.95
2023-01-02T07:02:16.495Z,98.03
2023-01-02T07:07:25.730Z,98.41
2023-01-02T07:12:36.048Z,99.09
2023-01-02T07:17:43.558Z,99.16
2023-01-02T07:22:57.747Z,99.68
2023-01-02T07:28:08.006Z,99.58
2023-01-02T07:33:18.887Z,98.98
2023-01-02T07:38:29.322Z,99.09
2023-01-02T07:43:38.307Z,99.26
2023-01-02T07:48:46.020Z,99.11
2023-01-02T07:53:54.977Z,99.45
2023-01-02T08:02:25.027Z,99.94
2023-01-02T08:07:34.484Z,100.00
2023-01-02T08:12:45.792Z,99.96
2023-01-02T08:17:54.047Z,99.95
2023-01-02T08:23:03.847Z,99.88
2023-01-02T08:28:11.565Z,99.93
2023-01-02T08:33:19.814Z,99.95
2023-01-02T08:38:27.807Z,99.74
2023-01-02T08:43:36.574Z,99.59
2023-01-02T08:48:47.048Z,99.79
2023-01-02T08:53:58.163Z,99.65
2023-01-02T08:59:08.813Z,99.63
2023-01-02T09:04:16.542Z,99.71
2023-01-02T09:09:28.045Z,99.38
2023-01-02T09:14:37.396Z,99.15
2023-01-02T09:19:45.667Z,98.90
2023-01-02T09:24:53.317Z,99.06
2023-01-02T09:30:02.801Z,98.97
2023-01-02T09:35:12.513Z,98.39
2023-01-02T09:40:20.424Z,98.10
2023-01-02T09:45:30.686Z,98.14
2023-01-02T09:50:39.645Z,97.78
2023-01-02T09:55:56.855Z,97.91
2023-01-02T10:01:05.351Z,97.70
2023-01-02T10:06:18.447Z,97.52
2023-01-02T10:11:35.266Z,97.12
2023-01-02T10:16:46.244Z,96.73
2023-01-02T10:22:17.735Z,96.32
2023-01-02T10:27:30.688Z,96.09
2023-01-02T10:36:02.341Z,95.61
2023-01-02T10:41:10.216Z,95.16
2023-01-02T10:46:17.479Z,94.41
2023-01-02T10:51:25.456Z,93.56
2023-01-02T10:56:35.818Z,93.31
2023-01-02T11:01:54.050Z,93.28
2023-01-02T11:07:03.922Z,92.96
2023-01-02T11:12:14.762Z,92.31
2023-01-02T11:17:25.151Z,91.89
2023-01-02T11:22:38.672Z,91.51
2023-01-02T11:27:47.070Z,90.92
2023-01-02T11:33:07.098Z,90.65
2023-01-02T11:38:30.174Z,90.19
2023-01-02T11:43:52.312Z,89.79
2023-01-02T11:49:05.142Z,89.41
2023-01-02T11:54:20.967Z,89.09
2023-01-02T11:59:37.774Z,88.55
2023-01-02T12:04:44.989Z,88.11
2023-01-02T12:24:34.682Z,86.48
2023-01-02T12:30:09.860Z,86.20
2023-01-02T12:35:36.229Z,85.87
2023-01-02T12:40:59.906Z,85.22
2023-01-02T12:46:18.769Z,84.44
2023-01-02T12:51:31.395Z,83.97
2023-01-02T12:56:46.275Z,83.37
2023-01-02T13:02:06.912Z,83.18
2023-01-02T13:07:19.703Z,82.70
2023-01-02T13:12:29.895Z,82.36
2023-01-02T13:17:58.233Z,82.52
2023-01-02T13:23:32.557Z,82.51
2023-01-02T13:28:45.372Z,82.19
2023-01-02T13:33:58.735Z,82.06
2023-01-02T13:39:18.662Z,82.03
2023-01-02T13:44:39.320Z,82.14
2023-01-02T13:49:50.535Z,82.38
2023-01-02T13:55:32.603Z,82.55
2023-01-02T14:00:51.617Z,82.48
2023-01-02T14:06:28.847Z,82.46
2023-01-02T14:11:55.736Z,82.92
2023-01-02T14:17:16.185Z,82.27
2023-01-02T14:22:25.061Z,82.40
2023-01-02T14:27:36.549Z,82.75
2023-01-02T14:32:47.443Z,82.63
2023-01-02T14:37:57.500Z,83.16
2023-01-02T14:43:27.063Z,83.37
2023-01-02T14:48:41.735Z,83.16
2023-01-02T14:53:53.545Z,83.76
2023-01-02T14:59:03.728Z,83.56
2023-01-02T15:04:22.915Z,83.81
2023-01-02T15:09:34.089Z,84.14
2023-01-02T15:14:44.295Z,84.50
2023-01-02T15:19:55.187Z,84.83
2023-01-02T15:25:04.828Z,84.92
2023-01-02T15:30:30.563Z,85.06
2023-01-02T15:35:39.229Z,85.30
2023-01-02T15:40:47.030Z,85.69
2023-01-02T15:45:58.313Z,86.02
2023-01-02T15:51:06.426Z,86.25
2023-01-02T16:04:28.976Z,86.36
2023-01-02T16:09:38.319Z,86.44
2023-01-02T16:14:50.992Z,86.67
2023-01-02T16:20:01.971Z,86.87
2023-01-02T16:25:17.323Z,86.86
2023-01-02T16:30:39.088Z,87.31
2023-01-02T16:36:00.566Z,87.44
2023-01-02T16:41:12.874Z,87.56
2023-01-02T16:46:20.834Z,87.75
2023-01-02T16:51:29.629Z,87.95
2023-01-02T16:56:37.851Z,88.38
2023-01-02T17:01:45.652Z,88.51
2023-01-02T17:06:56.374Z,88.15
2023-01-02T17:12:04.978Z,87.84
2023-01-02T17:17:13.414Z,88.73
2023-01-02T17:22:21.340Z,89.14
2023-01-02T17:27:31.694Z,89.47
2023-01-02T17:32:39.890Z,88.92
2023-01-02T17:37:50.284Z,88.68
2023-01-02T17:43:00.166Z,89.79
2023-01-02T17:48:12.224Z,90.57
2023-01-02T17:53:21.471Z,91.10
2023-01-02T17:58:30.415Z,90.94
2023-01-02T18:03:38.777Z,91.06
2023-01-02T18:08:48.765Z,90.52
2023-01-02T18:13:59.429Z,90.19
2023-01-02T18:19:12.626Z,90.80
2023-01-02T18:24:27.321Z,90.90
2023-01-02T18:29:35.130Z,91.41
2023-01-02T18:34:48.616Z,91.38
2023-01-02T18:40:01.732Z,91.41
2023-01-02T18:45:18.836Z,91.50
2023-01-02T18:50:33.588Z,91.60
2023-01-02T18:55:42.206Z,92.23
2023-01-02T19:02:59.839Z,92.54
2023-01-02T19:08:18.205Z,92.11
2023-01-02T19:13:25.899Z,92.89
2023-01-02T19:18:36.701Z,93.11
2023-01-02T19:23:46.278Z,93.43
2023-01-02T19:28:56.827Z,93.31
2023-01-02T19:34:02.928Z,93.36
2023-01-02T19:39:25.038Z,93.27
2023-01-02T19:44:29.217Z,93.40
2023-01-02T19:49:34.738Z,93.55
2023-01-02T19:54:39.936Z,93.66
2023-01-02T19:59:48.520Z,94.35
2023-01-02T20:04:55.650Z,95.01
2023-01-02T20:10:00.195Z,95.51
2023-01-02T20:15:09.920Z,95.44
2023-01-02T20:30:12.906Z,95.24
2023-01-02T20:35:20.302Z,95.85
2023-01-02T20:40:28.711Z,98.49
2023-01-02T20:45:36.065Z,100.00
2023-01-02T20:50:43.375Z,100.00
2023-01-02T20:55:51.490Z,100.00
2023-01-02T21:02:26.356Z,100.00
2023-01-02T21:07:34.024Z,100.00
2023-01-02T21:12:59.235Z,100.00
2023-01-02T21:18:10.379Z,100.00
2023-01-02T21:23:18.586Z,100.00
2023-01-02T21:28:27.390Z,100.00
2023-01-02T21:33:36.146Z,100.00
2023-01-02T21:38:45.480Z,100.00
2023-01-02T21:43:53.195Z,100.00
2023-01-02T21:49:01.725Z,100.00
2023-01-02T21:54:09.680Z,100.00
2023-01-02T21:59:17.569Z,100.00
2023-01-02T22:04:28.450Z,100.00
2023-01-02T22:09:36.696Z,100.00
2023-01-02T22:14:44.397Z,100.00
2023-01-02T22:19:52.505Z,100.00
2023-01-02T22:25:01.765Z,100.00
2023-01-02T22:30:24.308Z,100.00
2023-01-02T22:35:36.834Z,100.00
2023-01-02T22:40:44.441Z,100.00
2023-01-02T22:45:56.762Z,100.00
2023-01-02T22:51:05.587Z,100.00
2023-01-02T22:56:19.772Z,100.00
2023-01-02T23:01:32.921Z,100.00
2023-01-02T23:07:05.142Z,100.00
2023-01-02T23:12:08.900Z,100.00
2023-01-02T23:17:34.253Z,100.00
2023-01-02T23:22:42.246Z,100.00
2023-01-02T23:27:50.457Z,100.00
2023-01-02T23:32:57.928Z,100.00
2023-01-02T23:38:05.683Z,100.00
2023-01-02T23:43:14.040Z,100.00
2023-01-02T23:48:22.214Z,100.00
2023-01-02T23:53:30.650Z,100.00
2023-01-02T23:58:38.280Z,100.00
